Home   Weather   USA   Longmont   Past weeks
Flag for USA

Past Weather in Longmont, Colorado, USA — Yesterday and Last 2 Weeks

Currently: 65 °F. Sunny. (Weather station: Longmont/Vbrand, USA). See more current weather

Past Weather in Longmont — Graph

°F

Longmont Temperature Yesterday

Maximum temperature yesterday: 83 °F (at 3:15 pm)
Minimum temperature yesterday: 51 °F (at 5:55 am)
Average temperature yesterday: 69 °F

High & Low Weather Summary for the Past Weeks

 TemperatureHumidityPressure
High86 °F (May 17, 4:15 pm)88% (May 15, 6:35 am)30.35 "Hg (May 15, 6:35 am)
Low35 °F (May 11, 4:55 am)11% (May 17, 4:15 pm)29.35 "Hg (May 6, 3:15 am)
Average59 °F44%29.92 "Hg
* Reported May 5 6:35 pm — May 20 6:55 pm, Longmont. Weather by CustomWeather, © 2024

Note: Actual official high and low records may vary slightly from our data, if they occured in-between our weather recording intervals... More about our weather records

Longmont Weather History for the Previous 24 Hours

Scroll right to see more
 ConditionsComfort  
Time TempWeatherWind HumidityBarometerVisibility
6:55 pm
Mon, May 20
65 °FScattered clouds.5 mph47%29.76 "Hg10 mi
6:15 pm66 °FSunny.6 mph45%29.76 "Hg10 mi
5:55 pm67 °FSunny.5 mph44%29.76 "Hg10 mi
5:35 pm67 °FSunny.5 mph41%29.76 "Hg10 mi
5:15 pm67 °FSunny.7 mph40%29.77 "Hg10 mi
4:55 pm67 °FScattered clouds.7 mph41%29.78 "Hg10 mi
4:15 pm69 °FScattered clouds.7 mph37%29.81 "Hg10 mi
3:55 pm68 °FScattered clouds.7 mph38%29.82 "Hg10 mi
3:15 pm69 °FOvercast.3 mph36%29.83 "Hg10 mi
2:55 pm69 °FPartly sunny.3 mph35%29.85 "Hg10 mi
2:15 pm70 °FScattered clouds.3 mph33%29.87 "Hg10 mi
1:55 pm68 °FScattered clouds.6 mph36%29.87 "Hg10 mi
1:15 pm68 °FScattered clouds.3 mph36%29.90 "Hg10 mi
12:55 pm65 °FPartly sunny.8 mph40%29.91 "Hg10 mi
12:15 pm65 °FScattered clouds.8 mph41%29.93 "Hg10 mi
11:55 am65 °FScattered clouds.7 mph41%29.94 "Hg10 mi
11:35 am64 °FScattered clouds.6 mph42%29.94 "Hg10 mi
10:55 am63 °FScattered clouds.7 mph44%29.96 "Hg10 mi
10:15 am61 °FSunny.6 mph45%29.97 "Hg10 mi
9:55 am61 °FScattered clouds.8 mph46%29.98 "Hg10 mi
9:35 am58 °FScattered clouds.8 mph48%30.00 "Hg10 mi
9:15 am58 °FPartly sunny.7 mph48%30.00 "Hg10 mi
8:55 am57 °FOvercast.3 mph52%30.01 "Hg10 mi
8:15 am56 °FOvercast.3 mph54%30.03 "Hg10 mi
7:55 am56 °FScattered clouds.No wind55%30.04 "Hg10 mi
7:15 am51 °FPartly sunny.No wind68%30.04 "Hg10 mi
6:55 am51 °FOvercast.3 mph65%30.04 "Hg10 mi
6:15 am51 °FOvercast.No wind64%30.03 "Hg10 mi
5:55 am50 °FBroken clouds.3 mph67%30.03 "Hg10 mi
5:35 am49 °FClear.7 mph68%30.03 "Hg10 mi
4:55 am49 °FPassing clouds.3 mph68%30.04 "Hg10 mi
4:15 am51 °FClear.No wind64%30.04 "Hg10 mi
3:55 am51 °FClear.5 mph66%30.03 "Hg10 mi
3:35 am52 °FClear.5 mph64%30.03 "Hg10 mi
3:15 am54 °FClear.8 mph61%30.02 "Hg10 mi
2:55 am54 °FClear.5 mph61%30.00 "Hg10 mi
2:35 am55 °FClear.No wind61%29.99 "Hg10 mi
1:55 am55 °FClear.No wind61%29.97 "Hg10 mi
1:15 am53 °FClear.7 mph64%29.96 "Hg10 mi
12:55 am57 °FClear.No wind55%29.96 "Hg10 mi
12:35 am60 °FClear.No wind51%29.96 "Hg10 mi
12:15 am58 °FClear.6 mph54%29.95 "Hg10 mi
11:55 pm
Sun, May 19
59 °FClear.9 mph54%29.95 "Hg10 mi
11:15 pm60 °FRefreshingly cool.N/A48%N/AN/A
10:55 pm60 °FClear.No wind48%29.93 "Hg10 mi
10:35 pm62 °FRefreshingly cool.No wind42%29.93 "Hg10 mi
9:55 pm64 °FClear.3 mph34%29.91 "Hg10 mi
9:35 pm68 °FClear.5 mph29%29.89 "Hg10 mi
9:15 pm67 °FClear.8 mph31%29.89 "Hg10 mi
8:55 pm67 °FClear.No wind32%29.87 "Hg10 mi
8:35 pm68 °FClear.10 mph30%29.86 "Hg10 mi
Weather by CustomWeather, © 2024

See weather overview